Time,TemperatureF,DewpointF,PressureIn,WindDirection,WindDirectionDegrees,WindSpeedMPH,WindSpeedGustMPH,Humidity,HourlyPrecipIn,Conditions,Clouds,dailyrainin,SolarRadiationWatts/m^2,SoftwareType,DateUTC
2013-11-26 00:00:00,33.0,27.0,-100.00,SW,225,6.0,-999.0,78,-99.99,,,-99.99,0.000000,,2013-11-26 06:00:00,
2013-11-26 00:42:00,33.0,27.0,-100.00,SW,225,6.0,-999.0,78,-99.99,,,-99.99,0.000000,,2013-11-26 06:42:00,
2013-11-26 00:52:00,33.0,27.0,-100.00,SW,225,6.0,-999.0,78,-99.99,,,-99.99,0.000000,,2013-11-26 06:52:00,
2013-11-26 06:00:00,32.0,24.0,-100.00,NNW,337,5.0,-999.0,74,-99.99,,,-99.99,0.000000,,2013-11-26 12:00:00,
2013-11-26 06:42:00,32.0,24.0,-100.00,NNW,337,5.0,-999.0,74,-99.99,,,-99.99,0.000000,,2013-11-26 12:42:00,
2013-11-26 06:52:00,32.0,24.0,-100.00,NNW,337,5.0,-999.0,74,-99.99,,,-99.99,0.000000,,2013-11-26 12:52:00,
2013-11-26 09:00:00,28.0,26.0,-100.00,NW,315,6.0,-999.0,90,-99.99,,,-99.99,40.599998,,2013-11-26 15:00:00,
2013-11-26 09:43:00,28.0,26.0,-100.00,NW,315,6.0,-999.0,90,-99.99,,,-99.99,40.599998,,2013-11-26 15:43:00,
2013-11-26 09:54:00,28.0,26.0,-100.00,NW,315,6.0,-999.0,90,-99.99,,,-99.99,40.599998,,2013-11-26 15:54:00,
2013-11-26 12:00:00,25.0,13.0,-100.00,NNW,337,8.0,-999.0,60,-99.99,,,-99.99,129.919998,,2013-11-26 18:00:00,
2013-11-26 12:42:00,25.0,13.0,-100.00,NNW,337,8.0,-999.0,60,-99.99,,,-99.99,129.919998,,2013-11-26 18:42:00,
2013-11-26 12:53:00,25.0,13.0,-100.00,NNW,337,8.0,-999.0,60,-99.99,,,-99.99,129.919998,,2013-11-26 18:53:00,
2013-11-26 15:00:00,26.0,11.0,-100.00,NNW,337,8.0,-999.0,51,-99.99,,,-99.99,68.440002,,2013-11-26 21:00:00,
2013-11-26 15:44:00,26.0,11.0,-100.00,NNW,337,8.0,-999.0,51,-99.99,,,-99.99,68.440002,,2013-11-26 21:44:00,
2013-11-26 15:53:00,26.0,11.0,-100.00,NNW,337,8.0,-999.0,51,-99.99,,,-99.99,68.440002,,2013-11-26 21:53:00,
2013-11-26 18:00:00,20.0,5.0,-100.00,NNW,337,10.0,-999.0,53,-99.99,,,-99.99,0.000000,,2013-11-27 00:00:00,
2013-11-26 18:42:00,20.0,5.0,-100.00,NNW,337,10.0,-999.0,53,-99.99,,,-99.99,0.000000,,2013-11-27 00:42:00,
2013-11-26 18:52:00,20.0,5.0,-100.00,NNW,337,10.0,-999.0,53,-99.99,,,-99.99,0.000000,,2013-11-27 00:52:00,
2013-11-26 21:00:00,16.0,5.0,-100.00,NNW,337,10.0,-999.0,61,-99.99,,,-99.99,0.000000,,2013-11-27 03:00:00,
2013-11-26 21:44:00,16.0,5.0,-100.00,NNW,337,10.0,-999.0,61,-99.99,,,-99.99,0.000000,,2013-11-27 03:44:00,
2013-11-26 21:54:00,16.0,5.0,-100.00,NNW,337,10.0,-999.0,61,-99.99,,,-99.99,0.000000,,2013-11-27 03:54:00,